Time;durP1;ratioP1;P1;durP2;ratioP2;P2;SDS_P1;SDS_P2;PMS_P1;PMS_P2;Temp;Humidity;BMP_temperature;BMP_pressure;BME280_temperature;BME280_humidity;BME280_pressure;Samples;Min_cycle;Max_cycle;Signal;HPM_P1;HPM_P2
2021/09/22 00:00:14;;;;;;;1.20;1.10;;;7.20;1.40;;;8.71;100.00;96491.55;646095;216;31690;-72
2021/09/22 00:02:55;;;;;;;1.50;1.08;;;7.30;1.40;;;8.69;100.00;96485.75;646316;216;31716;-72
2021/09/22 00:05:37;;;;;;;2.40;1.03;;;7.30;1.40;;;8.70;100.00;96487.55;620309;226;32045;-72
2021/09/22 00:08:19;;;;;;;0.70;0.70;;;7.30;1.40;;;8.99;100.00;96488.67;647356;212;31524;-71
2021/09/22 00:11:00;;;;;;;0.80;0.70;;;7.40;1.40;;;9.02;100.00;96491.81;645564;212;31647;-73
2021/09/22 00:13:42;;;;;;;0.73;0.67;;;7.50;1.40;;;8.97;100.00;96487.75;646447;216;31666;-73
2021/09/22 00:16:28;;;;;;;1.13;1.07;;;7.50;1.40;;;8.88;100.00;96484.63;647485;212;31492;-71
2021/09/22 00:21:43;;;;;;;0.90;0.60;;;7.50;1.40;;;8.98;100.00;96481.48;645702;212;31512;-72
2021/09/22 00:24:24;;;;;;;1.60;0.80;;;7.60;1.40;;;9.02;100.00;96483.48;646525;216;31528;-72
2021/09/22 00:27:06;;;;;;;0.60;0.50;;;7.60;1.40;;;9.10;100.00;96484.25;646847;212;31904;-74
2021/09/22 00:29:48;;;;;;;0.90;0.70;;;7.70;1.40;;;9.18;100.00;96482.55;646333;212;31539;-72
2021/09/22 00:32:32;;;;;;;1.20;0.70;;;7.70;1.40;;;9.31;100.00;96482.58;645307;212;31563;-72
2021/09/22 00:35:51;;;;;;;1.92;1.17;;;7.80;1.40;;;9.40;100.00;96486.16;647078;216;31584;-72
2021/09/22 00:38:35;;;;;;;2.00;0.90;;;7.90;1.40;;;9.34;100.00;96489.23;646632;212;42751;-72
2021/09/22 00:41:17;;;;;;;1.03;0.93;;;7.80;1.40;;;9.26;100.00;96489.00;640371;216;32481;-72
2021/09/22 00:43:59;;;;;;;0.90;0.60;;;7.80;1.40;;;9.25;100.00;96491.22;648431;212;31673;-72
2021/09/22 00:49:18;;;;;;;1.10;1.00;;;7.80;1.40;;;9.19;100.00;96480.17;617913;222;31839;-72
2021/09/22 00:52:00;;;;;;;0.60;0.60;;;7.80;1.40;;;9.15;100.00;96476.38;646855;216;31710;-72
2021/09/22 00:54:44;;;;;;;1.13;0.50;;;7.70;1.40;;;9.14;100.00;96472.44;647186;216;31569;-72
2021/09/22 00:57:26;;;;;;;1.10;0.77;;;7.70;1.40;;;9.14;100.00;96469.67;646648;212;31511;-71
2021/09/22 01:00:11;;;;;;;0.57;0.57;;;7.60;1.40;;;9.16;100.00;96459.45;646635;216;31671;-71
2021/09/22 01:02:53;;;;;;;0.97;0.70;;;7.70;1.40;;;9.21;100.00;96463.99;646146;216;31526;-71
2021/09/22 01:05:35;;;;;;;0.90;0.40;;;7.70;1.40;;;9.39;100.00;96469.38;646913;212;31507;-72
2021/09/22 01:08:19;;;;;;;1.10;1.10;;;7.70;1.40;;;9.37;100.00;96475.11;645814;212;42157;-72
2021/09/22 01:11:01;;;;;;;1.10;1.00;;;7.80;1.40;;;9.36;100.00;96479.44;618202;222;31897;-72
2021/09/22 01:16:17;;;;;;;0.60;0.50;;;7.90;1.40;;;9.34;100.00;96477.28;646924;212;31720;-73
2021/09/22 01:18:59;;;;;;;0.80;0.80;;;7.90;1.40;;;9.34;100.00;96475.11;645795;212;31542;-74
2021/09/22 01:21:44;;;;;;;0.77;0.77;;;7.90;1.40;;;9.35;100.00;96475.17;647935;216;31528;-72
2021/09/22 01:24:26;;;;;;;1.30;0.60;;;7.80;1.40;;;9.23;100.00;96473.19;647511;216;31550;-72
2021/09/22 01:27:11;;;;;;;1.20;1.00;;;7.80;1.40;;;9.18;100.00;96465.78;646163;212;32134;-72
2021/09/22 01:29:53;;;;;;;0.80;0.80;;;7.70;1.40;;;9.19;100.00;96463.67;648340;212;31571;-72
2021/09/22 01:32:34;;;;;;;1.40;0.87;;;7.60;1.40;;;9.07;100.00;96460.72;645600;216;31559;-71
2021/09/22 01:35:51;;;;;;;0.90;0.70;;;7.50;1.40;;;9.04;100.00;96468.34;645149;212;31549;-72
2021/09/22 01:38:32;;;;;;;1.67;1.10;;;7.40;1.40;;;8.86;100.00;96469.97;646535;212;31474;-72
2021/09/22 01:41:17;;;;;;;0.60;0.43;;;7.30;1.40;;;8.73;100.00;96469.59;640588;212;31691;-72
2021/09/22 01:43:58;;;;;;;0.67;0.47;;;7.20;1.40;;;8.65;100.00;96465.09;620298;222;31979;-72
2021/09/22 01:46:40;;;;;;;0.63;0.63;;;7.20;1.40;;;8.46;100.00;96460.53;646115;212;31568;-73
2021/09/22 01:49:23;;;;;;;0.43;0.35;;;7.10;1.40;;;8.40;100.00;96446.73;620165;226;31830;-72
2021/09/22 01:52:04;;;;;;;0.80;0.80;;;7.10;1.40;;;8.31;100.00;96438.60;645300;212;31552;-73
2021/09/22 01:54:46;;;;;;;0.50;0.50;;;7.00;1.40;;;8.31;100.00;96443.63;647928;216;31682;-73
2021/09/22 01:57:28;;;;;;;1.00;0.50;;;7.00;1.40;;;8.28;100.00;96457.39;646955;212;31527;-72
2021/09/22 02:00:10;;;;;;;1.00;0.90;;;6.90;1.40;;;8.25;100.00;96455.12;647203;216;32108;-72
2021/09/22 02:02:52;;;;;;;1.30;0.87;;;6.90;1.40;;;8.24;100.00;96452.03;646770;212;31501;-72
2021/09/22 02:07:55;;;;;;;1.05;0.80;;;6.90;1.40;;;8.23;100.00;96452.08;647242;216;31857;-71
2021/09/22 02:10:37;;;;;;;0.60;0.50;;;6.90;1.40;;;8.20;100.00;96468.01;646055;212;31524;-72
2021/09/22 02:13:18;;;;;;;1.00;0.80;;;6.90;1.40;;;8.16;100.00;96461.05;645137;216;32001;-71
2021/09/22 02:16:00;;;;;;;0.90;0.50;;;6.90;1.40;;;8.28;100.00;96475.77;646103;212;31639;-72
2021/09/22 02:18:45;;;;;;;0.80;0.80;;;6.80;1.40;;;8.20;100.00;96479.03;645742;212;31533;-72
2021/09/22 02:21:27;;;;;;;1.10;1.00;;;6.90;1.40;;;8.18;100.00;96472.86;645826;216;31481;-71
2021/09/22 02:24:09;;;;;;;0.80;0.63;;;6.80;1.40;;;8.10;100.00;96468.05;646212;212;31517;-71
2021/09/22 02:26:52;;;;;;;1.03;0.73;;;6.70;1.40;;;8.02;100.00;96458.67;646320;216;31566;-73
2021/09/22 02:29:33;;;;;;;0.90;0.63;;;6.60;1.40;;;7.94;100.00;96460.06;618989;226;31880;-71
2021/09/22 02:32:14;;;;;;;1.10;0.90;;;6.60;1.40;;;7.93;100.00;96460.75;647093;212;31516;-72
2021/09/22 02:35:52;;;;;;;0.70;0.60;;;6.50;1.40;;;7.78;100.00;96473.88;647720;216;31539;-72
2021/09/22 02:41:07;;;;;;;0.40;0.37;;;6.40;1.40;;;7.70;100.00;96471.14;642563;216;31644;-71
2021/09/22 02:43:49;;;;;;;1.20;0.80;;;6.30;1.40;;;7.72;100.00;96473.04;617548;222;31841;-71
2021/09/22 02:46:31;;;;;;;0.80;0.40;;;6.30;1.40;;;7.66;100.00;96471.48;647260;216;31516;-71
2021/09/22 02:49:12;;;;;;;0.83;0.50;;;6.20;1.40;;;7.58;100.00;96474.48;646033;216;31722;-71
2021/09/22 02:51:54;;;;;;;1.20;0.70;;;6.10;1.40;;;7.57;100.00;96476.38;645607;216;31559;-72
2021/09/22 02:54:36;;;;;;;1.48;0.60;;;6.10;1.40;;;7.52;100.00;96477.03;647358;216;31717;-71
2021/09/22 02:57:20;;;;;;;0.97;0.63;;;6.00;1.40;;;7.44;100.00;96480.55;646223;216;31531;-73
2021/09/22 03:00:02;;;;;;;0.60;0.60;;;6.00;1.40;;;7.53;100.00;96481.47;646277;216;31666;-72
2021/09/22 03:02:44;;;;;;;2.30;1.30;;;6.00;1.40;;;7.48;100.00;96483.59;646301;216;31518;-72
2021/09/22 03:05:28;;;;;;;0.73;0.73;;;6.00;1.40;;;7.36;100.00;96480.56;646761;212;32245;-71
2021/09/22 03:08:10;;;;;;;0.90;0.60;;;6.00;1.40;;;7.26;100.00;96471.16;645810;216;31551;-71
2021/09/22 03:10:52;;;;;;;1.20;0.90;;;6.00;1.40;;;7.33;100.00;96469.48;645866;212;31550;-72
2021/09/22 03:13:33;;;;;;;0.70;0.70;;;6.10;1.40;;;7.37;100.00;96475.67;645437;212;32257;-73
2021/09/22 03:16:15;;;;;;;0.40;0.22;;;6.10;1.40;;;7.46;100.00;96479.70;647208;213;32472;-71
2021/09/22 03:18:57;;;;;;;0.90;0.50;;;6.10;1.40;;;7.55;100.00;96482.99;647054;212;31637;-71
2021/09/22 03:21:39;;;;;;;1.08;0.77;;;6.10;1.40;;;7.51;100.00;96480.81;645640;212;31623;-72
2021/09/22 03:24:20;;;;;;;1.50;1.40;;;6.00;1.40;;;7.32;100.00;96477.13;645792;213;31841;-72
2021/09/22 03:27:02;;;;;;;0.80;0.60;;;5.90;1.40;;;7.37;100.00;96477.45;646955;212;31987;-71
2021/09/22 03:29:44;;;;;;;1.00;1.00;;;5.90;1.40;;;7.15;100.00;96480.05;641274;217;32130;-72
2021/09/22 03:32:25;;;;;;;0.73;0.73;;;5.80;1.40;;;7.17;100.00;96479.58;645948;216;31535;-71
2021/09/22 03:35:51;;;;;;;0.62;0.30;;;5.80;1.40;;;7.07;100.00;96483.92;646350;216;31570;-74
2021/09/22 03:38:32;;;;;;;0.77;0.73;;;5.70;1.40;;;7.05;100.00;96487.11;645367;216;31757;-74
2021/09/22 03:41:14;;;;;;;0.90;0.50;;;5.60;1.40;;;7.07;100.00;96493.52;617908;223;31888;-74
2021/09/22 03:43:56;;;;;;;1.10;1.00;;;5.60;1.40;;;7.08;100.00;96498.39;646208;212;31573;-72
2021/09/22 03:46:37;;;;;;;0.95;0.85;;;5.60;1.40;;;7.26;100.00;96501.64;647161;216;31562;-72
2021/09/22 03:49:19;;;;;;;0.40;0.40;;;5.70;1.40;;;7.08;100.00;96491.11;646785;216;31523;-72
2021/09/22 03:52:01;;;;;;;0.77;0.65;;;5.70;1.40;;;7.01;100.00;96493.55;646455;216;31459;-71
2021/09/22 03:54:42;;;;;;;0.70;0.50;;;5.60;1.40;;;6.88;100.00;96491.16;644516;212;32121;-74
2021/09/22 03:57:24;;;;;;;1.40;1.10;;;5.50;1.40;;;6.87;100.00;96497.05;645934;216;31543;-74
2021/09/22 04:00:07;;;;;;;0.70;0.70;;;5.40;1.40;;;6.79;100.00;96499.41;647406;212;31524;-72
2021/09/22 04:02:48;;;;;;;0.95;0.45;;;5.30;1.40;;;6.68;100.00;96497.86;641241;217;31590;-71
2021/09/22 04:05:30;;;;;;;0.80;0.70;;;5.30;1.40;;;6.64;100.00;96500.46;648250;212;31597;-74
2021/09/22 04:08:12;;;;;;;0.60;0.60;;;5.20;1.40;;;6.58;100.00;96497.97;646370;212;31479;-72
2021/09/22 04:10:53;;;;;;;1.13;0.70;;;5.20;1.40;;;6.57;100.00;96498.12;618309;225;31989;-72
2021/09/22 04:13:38;;;;;;;0.50;0.50;;;5.10;1.40;;;6.57;100.00;96499.25;645528;212;31689;-74
2021/09/22 04:16:21;;;;;;;0.75;0.70;;;5.10;1.40;;;6.52;100.00;96493.44;647317;216;32043;-72
2021/09/22 04:19:03;;;;;;;1.15;0.55;;;5.10;1.40;;;6.41;100.00;96495.34;646358;216;31598;-72
2021/09/22 04:21:48;;;;;;;0.60;0.40;;;5.00;1.40;;;6.44;100.00;96496.61;646838;212;31732;-71
2021/09/22 04:24:29;;;;;;;1.10;0.50;;;5.10;1.40;;;6.46;100.00;96492.31;645824;216;31508;-74
2021/09/22 04:29:48;;;;;;;0.67;0.67;;;5.10;1.40;;;6.30;100.00;96483.82;645730;212;31514;-72
2021/09/22 04:32:30;;;;;;;0.98;0.88;;;5.20;1.40;;;6.24;100.00;96477.61;646454;216;31929;-72
2021/09/22 04:35:52;;;;;;;1.62;0.85;;;5.30;1.40;;;6.31;100.00;96485.33;646995;212;31521;-71
2021/09/22 04:38:34;;;;;;;1.20;0.70;;;5.20;1.40;;;6.35;100.00;96487.67;646612;216;31505;-71
2021/09/22 04:41:14;;;;;;;1.90;0.87;;;5.10;1.40;;;6.29;100.00;96485.38;639916;216;31814;-71
2021/09/22 04:43:56;;;;;;;0.70;0.70;;;5.00;1.40;;;6.20;100.00;96485.16;646183;216;31551;-73
2021/09/22 04:46:37;;;;;;;0.70;0.60;;;5.00;1.40;;;6.26;100.00;96486.94;645719;212;31712;-73
2021/09/22 04:49:19;;;;;;;0.52;0.50;;;5.00;1.40;;;6.21;100.00;96484.09;647178;212;42743;-74
2021/09/22 04:52:01;;;;;;;1.70;0.60;;;5.00;1.40;;;6.31;100.00;96490.61;646854;212;32062;-74
2021/09/22 04:54:42;;;;;;;1.55;1.45;;;5.10;1.40;;;6.28;100.00;96492.73;645300;216;31591;-71
2021/09/22 04:57:24;;;;;;;0.60;0.60;;;5.10;1.40;;;6.28;100.00;96495.97;645899;216;31560;-73
2021/09/22 05:00:07;;;;;;;0.90;0.60;;;5.10;1.40;;;6.33;100.00;96492.33;645955;212;31629;-73
2021/09/22 05:02:48;;;;;;;1.90;0.60;;;5.10;1.40;;;6.43;100.00;96505.43;619165;222;32500;-74
2021/09/22 05:05:30;;;;;;;0.82;0.75;;;5.20;1.40;;;6.34;100.00;96502.80;615778;225;31828;-72
2021/09/22 05:08:12;;;;;;;1.30;0.70;;;5.10;1.40;;;6.40;100.00;96507.07;646936;216;31497;-72
2021/09/22 05:10:54;;;;;;;0.60;0.40;;;5.10;1.40;;;6.36;100.00;96506.86;645762;216;31843;-73
2021/09/22 05:13:36;;;;;;;0.40;0.30;;;5.10;1.40;;;6.38;100.00;96499.02;644707;216;31577;-74
2021/09/22 05:16:18;;;;;;;0.60;0.52;;;5.20;1.40;;;6.39;100.00;96505.59;646065;216;31625;-74
2021/09/22 05:19:02;;;;;;;1.30;1.00;;;5.20;1.40;;;6.35;100.00;96510.88;647087;214;31562;-74
2021/09/22 05:21:44;;;;;;;0.60;0.50;;;5.10;1.40;;;6.33;100.00;96512.33;645344;213;31792;-74
2021/09/22 05:24:26;;;;;;;0.90;0.80;;;5.10;1.40;;;6.42;100.00;96510.32;646913;216;31593;-74
2021/09/22 05:27:08;;;;;;;1.10;1.00;;;5.20;1.40;;;6.49;100.00;96513.42;645717;212;31476;-72
2021/09/22 05:29:52;;;;;;;1.10;0.90;;;5.20;1.40;;;6.52;100.00;96518.39;646041;216;31958;-72
2021/09/22 05:32:33;;;;;;;1.08;0.77;;;5.20;1.40;;;6.59;100.00;96519.48;646612;213;31504;-74
2021/09/22 05:35:51;;;;;;;0.60;0.60;;;5.30;1.40;;;6.59;100.00;96519.48;645973;212;42168;-71
2021/09/22 05:38:32;;;;;;;0.90;0.67;;;5.30;1.40;;;6.62;100.00;96520.48;619050;226;32039;-70
2021/09/22 05:41:14;;;;;;;1.70;0.68;;;5.50;1.40;;;6.77;100.00;96521.05;641371;213;31678;-71
2021/09/22 05:43:56;;;;;;;1.23;1.03;;;5.60;1.40;;;6.82;100.00;96523.48;645029;216;31512;-71
2021/09/22 05:46:40;;;;;;;0.70;0.70;;;5.60;1.40;;;6.77;100.00;96522.29;647733;216;32173;-70
2021/09/22 05:49:22;;;;;;;1.40;0.60;;;5.60;1.40;;;6.92;100.00;96520.64;647158;212;32061;-73
2021/09/22 05:52:04;;;;;;;0.90;0.90;;;5.70;1.40;;;6.95;100.00;96520.72;641734;215;31481;-72
2021/09/22 05:54:46;;;;;;;1.17;0.87;;;5.80;1.40;;;6.88;100.00;96511.99;645095;216;31531;-71
2021/09/22 05:57:27;;;;;;;1.20;0.60;;;5.80;1.40;;;6.99;100.00;96509.98;646431;212;31508;-71
2021/09/22 06:00:10;;;;;;;1.20;0.63;;;5.90;1.40;;;7.11;100.00;96515.83;644844;216;31571;-73
2021/09/22 06:02:52;;;;;;;1.25;1.15;;;6.10;1.40;;;7.25;100.00;96509.08;646793;212;31474;-72
2021/09/22 06:05:33;;;;;;;1.43;1.20;;;6.20;1.40;;;7.45;100.00;96510.17;646231;212;31510;-72
2021/09/22 06:08:15;;;;;;;1.35;1.20;;;6.30;1.40;;;7.72;100.00;96513.79;645759;216;31999;-71
2021/09/22 06:10:57;;;;;;;3.50;0.90;;;6.60;1.40;;;7.84;100.00;96512.44;619692;222;32141;-71
2021/09/22 06:13:38;;;;;;;0.70;0.40;;;6.70;1.40;;;7.99;100.00;96508.42;618194;226;31879;-73
2021/09/22 06:16:21;;;;;;;1.60;1.20;;;6.90;1.40;;;8.23;100.00;96508.92;644527;212;31527;-72
2021/09/22 06:19:08;;;;;;;1.40;1.30;;;7.10;1.40;;;8.27;100.00;96515.53;646460;216;32180;-71
2021/09/22 06:21:47;;;;;;;1.10;0.90;;;7.20;1.40;;;8.48;100.00;96512.16;646614;212;31553;-71
2021/09/22 06:24:29;;;;;;;1.80;0.50;;;7.40;1.40;;;8.61;100.00;96514.28;645744;212;32150;-70
2021/09/22 06:27:11;;;;;;;1.20;1.00;;;7.50;1.40;;;8.76;100.00;96516.35;646298;216;31816;-70
2021/09/22 06:29:52;;;;;;;2.78;2.20;;;7.70;1.40;;;8.92;100.00;96514.17;645496;216;32125;-70
2021/09/22 06:32:35;;;;;;;1.50;1.03;;;7.80;1.40;;;9.23;100.00;96511.13;645315;212;32298;-70
2021/09/22 06:35:59;;;;;;;0.70;0.60;;;8.10;1.40;;;9.33;100.00;96510.78;645802;216;31927;-70
2021/09/22 06:38:34;;;;;;;4.20;1.23;;;8.20;1.40;;;9.30;100.00;96515.55;618088;222;31938;-73
2021/09/22 06:41:19;;;;;;;1.83;1.53;;;8.30;1.40;;;9.31;100.00;96523.28;641371;212;31667;-70
2021/09/22 06:44:00;;;;;;;1.47;1.37;;;8.20;1.40;;;9.34;100.00;96520.09;648042;216;31619;-70
2021/09/22 06:49:16;;;;;;;1.60;1.50;;;8.30;1.40;;;9.52;100.00;96526.40;646915;212;31551;-70
2021/09/22 06:51:58;;;;;;;1.15;1.05;;;8.50;1.40;;;9.68;100.00;96526.80;645462;216;31913;-71
2021/09/22 06:54:40;;;;;;;1.00;1.00;;;8.60;1.40;;;10.00;100.00;96531.59;645370;216;31559;-70
2021/09/22 06:57:21;;;;;;;2.10;1.77;;;8.80;1.40;;;10.00;100.00;96534.91;645743;216;42092;-70
2021/09/22 07:00:03;;;;;;;1.60;1.50;;;8.80;1.40;;;10.26;100.00;96540.62;647142;216;31733;-71
2021/09/22 07:02:45;;;;;;;1.60;1.50;;;9.00;1.40;;;10.72;100.00;96537.73;644555;216;42179;-70
2021/09/22 07:05:26;;;;;;;2.47;2.28;;;9.20;1.40;;;11.04;100.00;96535.77;646006;216;42190;-70
2021/09/22 07:10:42;;;;;;;2.30;2.20;;;9.50;1.40;;;11.47;100.00;96530.81;646226;215;31608;-71
2021/09/22 07:13:24;;;;;;;1.80;1.43;;;9.70;1.40;;;11.55;100.00;96536.31;646300;216;31571;-70
2021/09/22 07:16:06;;;;;;;1.40;1.30;;;9.80;1.40;;;11.57;100.00;96539.39;646576;212;42172;-71
2021/09/22 07:18:49;;;;;;;1.50;1.40;;;9.80;1.40;;;11.77;100.00;96540.72;645820;212;42230;-73
2021/09/22 07:21:33;;;;;;;3.43;2.40;;;9.90;1.40;;;11.65;100.00;96540.14;645893;216;31575;-70
2021/09/22 07:24:15;;;;;;;2.30;1.87;;;10.00;1.40;;;11.47;100.00;96544.01;643615;212;31949;-70
2021/09/22 07:26:57;;;;;;;1.57;1.47;;;10.10;1.40;;;12.18;100.00;96540.95;646038;216;31547;-70
2021/09/22 07:29:38;;;;;;;2.00;1.80;;;10.30;1.40;;;12.44;100.00;96548.16;646814;216;31708;-71
2021/09/22 07:32:20;;;;;;;2.30;2.05;;;10.50;1.40;;;12.72;100.00;96546.67;645243;216;31928;-70
2021/09/22 07:35:53;;;;;;;3.47;2.37;;;10.60;1.40;;;12.68;100.00;96550.97;646122;212;31663;-71
2021/09/22 07:38:35;;;;;;;2.62;2.15;;;10.70;1.40;;;12.76;100.00;96550.44;646915;216;31586;-71
2021/09/22 07:41:17;;;;;;;2.90;1.80;;;10.70;1.40;;;12.74;100.00;96551.06;639986;216;31748;-71
2021/09/22 07:43:58;;;;;;;2.90;2.60;;;10.90;1.40;;;12.72;93.87;96547.23;646196;212;34495;-71
2021/09/22 07:46:40;;;;;;;2.00;1.80;;;10.90;1.40;;;12.92;95.68;96546.02;646396;212;32834;-71
2021/09/22 07:49:22;;;;;;;2.20;1.73;;;11.10;1.40;;;13.11;98.32;96549.81;646280;216;42195;-71
2021/09/22 07:52:04;;;;;;;2.75;2.30;;;11.20;1.40;;;13.37;100.00;96545.19;646273;216;35719;-71
2021/09/22 07:54:48;;;;;;;2.65;2.10;;;11.40;1.40;;;13.47;92.08;96545.01;647253;216;32230;-70
2021/09/22 07:57:30;;;;;;;2.90;2.60;;;11.60;1.40;;;13.60;92.85;96547.02;646659;212;42804;-71
2021/09/22 08:00:12;;;;;;;2.67;2.10;;;11.70;1.40;;;13.51;87.25;96547.73;646492;216;31679;-71
2021/09/22 08:02:54;;;;;;;2.72;2.05;;;11.80;1.40;;;13.54;85.18;96545.50;644532;212;42398;-71
2021/09/22 08:05:38;;;;;;;2.92;2.10;;;12.00;1.40;;;13.96;82.41;96548.66;646224;212;42174;-70
2021/09/22 08:08:17;;;;;;;2.28;1.85;;;12.30;1.40;;;14.55;80.65;96551.34;647416;212;42163;-71
2021/09/22 08:10:59;;;;;;;3.55;2.50;;;12.70;1.40;;;14.67;77.34;96554.87;647029;212;31541;-71
2021/09/22 08:13:40;;;;;;;3.65;2.30;;;12.90;1.40;;;14.46;75.16;96559.29;646339;212;31555;-71
2021/09/22 08:16:22;;;;;;;3.15;2.60;;;12.90;1.40;;;14.89;78.51;96558.52;647299;212;31635;-71
2021/09/22 08:19:07;;;;;;;3.72;2.37;;;13.20;1.40;;;15.26;74.15;96555.70;645731;216;31623;-71
2021/09/22 08:21:49;;;;;;;2.80;2.45;;;13.40;1.40;;;14.65;73.61;96556.72;646500;216;31549;-70
2021/09/22 08:27:08;;;;;;;3.53;2.93;;;13.40;1.40;;;15.65;73.56;96561.88;645469;212;31760;-72
2021/09/22 08:29:49;;;;;;;3.05;2.72;;;13.90;1.40;;;15.18;62.95;96558.47;646419;216;31540;-70
2021/09/22 08:32:36;;;;;;;3.50;3.20;;;13.60;1.40;;;15.78;66.86;96553.31;647327;216;31560;-70
2021/09/22 08:35:51;;;;;;;3.45;2.80;;;14.20;1.40;;;16.27;67.29;96555.98;646789;212;31566;-71
2021/09/22 08:38:33;;;;;;;4.18;2.90;;;14.50;1.40;;;16.82;69.40;96558.94;646919;216;31545;-72
2021/09/22 08:41:15;;;;;;;2.90;2.60;;;14.80;1.40;;;17.47;62.98;96553.20;640584;212;32587;-71
2021/09/22 08:44:03;;;;;;;3.40;2.50;;;15.50;1.40;;;17.33;66.72;96543.97;645877;216;32197;-72
2021/09/22 08:46:40;;;;;;;4.03;3.50;;;15.40;1.40;;;16.46;58.49;96549.11;646080;212;32145;-71
2021/09/22 08:49:23;;;;;;;3.40;2.60;;;14.90;1.40;;;17.03;62.78;96549.03;646728;212;31584;-71
2021/09/22 08:52:05;;;;;;;3.35;2.65;;;15.20;1.40;;;17.07;55.83;96546.08;646946;212;31556;-70
2021/09/22 08:54:48;;;;;;;3.05;2.60;;;15.70;1.40;;;17.22;54.64;96546.59;647599;216;31542;-70
2021/09/22 08:57:29;;;;;;;3.08;2.20;;;17.50;1.40;;;19.18;52.17;96544.52;646084;212;31691;-70
2021/09/22 09:00:13;;;;;;;3.20;2.40;;;18.80;1.40;;;21.24;49.65;96537.58;648633;216;31857;-71
2021/09/22 09:02:55;;;;;;;6.15;2.58;;;20.70;1.40;;;22.83;45.27;96532.45;646422;216;31804;-71
2021/09/22 09:05:36;;;;;;;3.03;2.40;;;21.50;1.40;;;23.57;45.03;96533.45;645498;212;31590;-71
2021/09/22 09:08:20;;;;;;;3.07;2.40;;;21.40;1.40;;;23.77;46.33;96535.64;646592;213;31557;-72
2021/09/22 09:11:02;;;;;;;3.60;2.20;;;21.90;1.40;;;23.93;47.67;96532.34;648137;212;31578;-72
2021/09/22 09:13:48;;;;;;;2.97;2.67;;;21.70;1.40;;;25.13;41.08;96526.67;646862;212;31934;-70
2021/09/22 09:16:36;;;;;;;3.37;2.65;;;21.90;1.40;;;25.06;44.01;96536.19;618170;226;31904;-72
2021/09/22 09:19:18;;;;;;;2.90;2.50;;;22.30;1.40;;;24.76;41.72;96540.58;619195;226;31987;-71
2021/09/22 09:22:09;;;;;;;3.20;2.78;;;21.80;1.40;;;25.02;39.80;96544.88;647009;216;31668;-72
2021/09/22 09:27:33;;;;;;;3.83;2.33;;;22.90;1.40;;;27.50;43.51;96534.50;645405;216;31793;-72
2021/09/22 09:30:18;;;;;;;2.78;2.47;;;23.40;1.40;;;26.23;37.53;96535.11;645840;212;31649;-72
2021/09/22 09:32:59;;;;;;;2.92;2.60;;;22.50;1.40;;;26.80;38.78;96536.63;645138;212;42162;-72
2021/09/22 09:35:50;;;;;;;2.30;2.10;;;23.00;1.40;;;25.98;37.35;96540.76;645221;212;31738;-72
2021/09/22 09:38:34;;;;;;;2.67;2.40;;;22.30;1.40;;;24.93;40.63;96534.13;646592;216;31552;-73
2021/09/22 09:44:01;;;;;;;2.40;2.20;;;21.00;1.40;;;25.49;41.01;96526.04;646035;212;32279;-72
2021/09/22 09:46:42;;;;;;;1.60;1.30;;;21.30;1.40;;;26.31;37.89;96523.83;646335;212;42202;-72
2021/09/22 09:49:24;;;;;;;1.77;1.40;;;22.20;1.40;;;26.39;35.91;96524.01;646440;216;31802;-72
2021/09/22 09:52:06;;;;;;;1.92;1.73;;;22.40;1.40;;;26.72;34.83;96522.94;645915;212;31563;-72
2021/09/22 09:54:48;;;;;;;3.35;1.80;;;22.30;1.40;;;26.45;36.67;96519.86;647331;212;31607;-71
2021/09/22 09:57:30;;;;;;;1.90;1.58;;;21.30;1.40;;;26.82;34.98;96524.12;647120;216;31724;-71
2021/09/22 10:00:13;;;;;;;1.80;1.70;;;21.70;1.40;;;25.19;37.88;96527.04;619677;222;31853;-72
2021/09/22 10:02:55;;;;;;;1.60;1.50;;;22.40;1.40;;;25.36;38.07;96524.09;620110;226;32057;-71
2021/09/22 10:05:37;;;;;;;2.00;1.70;;;22.60;1.40;;;28.49;35.63;96521.48;645518;216;31498;-72
2021/09/22 10:08:18;;;;;;;2.03;1.27;;;24.00;1.40;;;27.15;35.23;96517.55;646837;216;31526;-72
2021/09/22 10:11:03;;;;;;;2.22;1.90;;;22.50;1.40;;;28.59;35.79;96515.66;645958;212;31527;-71
2021/09/22 10:13:41;;;;;;;1.40;1.30;;;23.90;1.40;;;29.96;34.92;96508.02;647272;216;42157;-72
2021/09/22 10:16:23;;;;;;;2.00;1.60;;;24.40;1.40;;;29.12;31.50;96515.36;647974;216;31532;-72
2021/09/22 10:19:05;;;;;;;1.90;1.80;;;24.80;1.40;;;30.94;33.62;96510.94;646164;212;31525;-71
2021/09/22 10:21:46;;;;;;;1.65;1.55;;;23.30;1.40;;;28.53;33.51;96521.66;645348;216;31537;-70
2021/09/22 10:24:28;;;;;;;2.42;2.00;;;21.90;1.40;;;26.78;35.57;96521.55;646194;212;31756;-72
2021/09/22 10:27:15;;;;;;;2.08;1.50;;;20.70;1.40;;;24.79;38.50;96529.41;646566;216;42169;-71
2021/09/22 10:30:01;;;;;;;1.80;1.65;;;20.00;1.40;;;25.01;40.16;96521.48;645592;212;42326;-72
2021/09/22 10:32:42;;;;;;;2.10;1.50;;;19.70;1.40;;;25.07;38.27;96520.66;646986;212;32063;-72
2021/09/22 10:35:56;;;;;;;1.98;1.55;;;21.50;1.40;;;25.79;38.58;96515.13;647825;216;31547;-73
2021/09/22 10:38:43;;;;;;;1.90;1.70;;;23.50;1.40;;;26.72;38.37;96513.34;646917;216;31595;-71
2021/09/22 10:41:25;;;;;;;1.62;1.50;;;24.10;1.40;;;29.35;34.42;96508.07;641417;216;31658;-72
2021/09/22 10:44:07;;;;;;;1.70;1.50;;;24.90;1.40;;;29.91;31.36;96504.81;646101;216;32159;-72
2021/09/22 10:46:48;;;;;;;2.62;2.22;;;25.50;1.40;;;27.99;32.42;96499.12;645432;216;32285;-73
2021/09/22 10:49:30;;;;;;;2.50;2.12;;;24.80;1.40;;;28.20;33.68;96501.09;647583;216;31606;-72
2021/09/22 10:52:12;;;;;;;2.10;2.00;;;25.00;1.40;;;32.34;30.44;96493.05;645332;216;31611;-72
2021/09/22 10:55:16;;;;;;;1.60;1.50;;;25.10;1.40;;;32.38;31.11;96494.34;646711;212;31573;-71
2021/09/22 10:57:58;;;;;;;1.98;1.27;;;26.40;1.40;;;29.34;30.64;96499.82;646641;212;31790;-72
2021/09/22 11:00:39;;;;;;;2.20;2.00;;;22.30;1.40;;;28.73;34.98;96502.14;645537;212;31750;-72
2021/09/22 11:03:21;;;;;;;2.80;1.77;;;21.30;1.40;;;27.94;35.26;96502.74;647191;216;31717;-72
2021/09/22 11:06:02;;;;;;;1.50;1.40;;;22.20;1.40;;;26.80;36.54;96500.30;646276;216;31576;-72
2021/09/22 11:08:44;;;;;;;2.78;1.90;;;21.30;1.40;;;26.66;37.03;96496.61;646523;214;31745;-71
2021/09/22 11:11:26;;;;;;;2.08;1.80;;;21.40;1.40;;;29.16;33.42;96493.67;619244;226;31858;-71
2021/09/22 11:14:07;;;;;;;2.87;1.90;;;24.10;1.40;;;30.74;33.84;96485.97;646597;216;31650;-72
2021/09/22 11:16:49;;;;;;;2.20;2.00;;;26.40;1.40;;;33.04;29.94;96485.13;618367;226;31883;-71
2021/09/22 11:19:30;;;;;;;1.87;1.77;;;26.90;1.40;;;32.89;28.23;96483.61;647420;212;31658;-73
2021/09/22 11:22:12;;;;;;;2.17;1.98;;;26.00;1.40;;;31.25;30.26;96486.06;646832;212;42305;-73
2021/09/22 11:24:54;;;;;;;2.87;1.87;;;23.00;1.40;;;28.55;34.32;96486.61;645934;212;31745;-72
2021/09/22 11:27:37;;;;;;;2.33;1.90;;;21.40;1.40;;;27.24;35.61;96484.52;647056;212;31676;-72
2021/09/22 11:30:17;;;;;;;2.20;1.90;;;20.30;1.40;;;27.75;34.56;96481.38;646869;212;31752;-72
2021/09/22 11:38:27;;;;;;;2.15;1.95;;;22.70;1.40;;;27.56;35.08;96472.48;646855;212;31553;-73
2021/09/22 11:41:08;;;;;;;2.10;1.75;;;20.50;1.40;;;25.68;38.14;96473.07;646862;212;31526;-71
2021/09/22 11:43:50;;;;;;;3.08;1.87;;;19.40;1.40;;;22.62;43.36;96470.77;646718;212;32124;-72
2021/09/22 11:46:32;;;;;;;2.37;1.50;;;18.30;1.40;;;22.35;45.17;96469.48;645237;212;32099;-71
2021/09/22 11:49:13;;;;;;;1.45;1.33;;;18.00;1.40;;;21.01;48.78;96462.63;646977;212;32230;-72
2021/09/22 11:52:19;;;;;;;2.58;1.80;;;17.60;1.40;;;20.51;49.01;96460.83;647894;212;31595;-72
2021/09/22 11:55:06;;;;;;;1.80;1.30;;;17.40;1.40;;;22.40;43.34;96456.64;644855;212;31511;-72
2021/09/22 11:57:46;;;;;;;1.92;1.70;;;18.40;1.40;;;23.75;40.37;96456.34;645880;216;31690;-71
2021/09/22 12:00:28;;;;;;;1.67;1.58;;;20.40;1.40;;;24.99;38.62;96453.06;619340;222;32300;-71
2021/09/22 12:04:16;;;;;;;2.40;1.50;;;22.10;1.40;;;26.89;35.74;96447.44;647514;216;31582;-71
2021/09/22 12:06:58;;;;;;;2.70;1.70;;;24.20;1.40;;;29.22;32.50;96440.07;646486;212;42336;-72
2021/09/22 12:09:43;;;;;;;1.90;1.50;;;23.80;1.40;;;28.49;33.18;96442.11;646832;216;31550;-72
2021/09/22 12:12:25;;;;;;;2.05;1.80;;;22.30;1.40;;;27.06;35.19;96436.11;646223;216;31575;-71
2021/09/22 12:15:07;;;;;;;1.80;1.45;;;20.50;1.40;;;25.29;38.38;96432.45;644823;212;31689;-72